createdAt,value
2019-01-25T00:00:40.888Z,-4.40
2019-01-25T00:03:10.397Z,-4.40
2019-01-25T00:05:39.354Z,-4.40
2019-01-25T00:08:08.214Z,-4.40
2019-01-25T00:10:37.065Z,-4.40
2019-01-25T00:13:05.899Z,-4.40
2019-01-25T00:15:34.669Z,-4.50
2019-01-25T00:18:04.910Z,-4.40
2019-01-25T00:20:33.677Z,-4.50
2019-01-25T00:23:02.529Z,-4.50
2019-01-25T00:25:31.441Z,-4.50
2019-01-25T00:28:00.206Z,-4.40
2019-01-25T00:30:29.090Z,-4.40
2019-01-25T00:32:58.106Z,-4.40
2019-01-25T00:35:26.954Z,-4.40
2019-01-25T00:37:55.729Z,-4.40
2019-01-25T00:40:24.660Z,-4.40
2019-01-25T00:42:53.570Z,-4.40
2019-01-25T00:45:22.697Z,-4.30
2019-01-25T00:47:51.461Z,-4.30
2019-01-25T00:50:20.582Z,-4.40
2019-01-25T00:52:49.872Z,-4.40
2019-01-25T00:55:18.906Z,-4.30
2019-01-25T00:57:47.917Z,-4.30
2019-01-25T01:00:19.317Z,-4.30
2019-01-25T01:02:48.429Z,-4.30
2019-01-25T01:05:18.126Z,-4.20
2019-01-25T01:07:47.134Z,-4.30
2019-01-25T01:10:16.161Z,-4.30
2019-01-25T01:12:44.999Z,-4.30
2019-01-25T01:15:14.217Z,-4.30
2019-01-25T01:17:43.154Z,-4.30
2019-01-25T01:20:14.205Z,-4.30
2019-01-25T01:22:43.110Z,-4.30
2019-01-25T01:25:13.202Z,-4.30
2019-01-25T01:27:42.120Z,-4.40
2019-01-25T01:30:14.414Z,-4.40
2019-01-25T01:32:43.433Z,-4.40
2019-01-25T01:35:12.838Z,-4.40
2019-01-25T01:37:41.697Z,-4.30
2019-01-25T01:40:14.088Z,-4.30
2019-01-25T01:42:43.013Z,-4.30
2019-01-25T01:45:11.922Z,-4.30
2019-01-25T01:47:40.856Z,-4.30
2019-01-25T01:50:11.832Z,-4.30
2019-01-25T01:52:40.684Z,-4.20
2019-01-25T01:55:09.721Z,-4.20
2019-01-25T01:57:38.649Z,-4.20
2019-01-25T02:00:13.825Z,-4.20
2019-01-25T02:02:42.993Z,-4.20
2019-01-25T02:05:11.918Z,-4.30
2019-01-25T02:07:41.029Z,-4.30
2019-01-25T02:10:12.531Z,-4.30
2019-01-25T02:12:41.462Z,-4.30
2019-01-25T02:15:12.345Z,-4.30
2019-01-25T02:17:41.311Z,-4.30
2019-01-25T02:20:12.970Z,-4.30
2019-01-25T02:22:42.003Z,-4.30
2019-01-25T02:25:10.914Z,-4.30
2019-01-25T02:27:39.715Z,-4.30
2019-01-25T02:30:11.536Z,-4.30
2019-01-25T02:32:40.471Z,-4.30
2019-01-25T02:35:09.455Z,-4.30
2019-01-25T02:37:38.387Z,-4.30
2019-01-25T02:40:08.146Z,-4.30
2019-01-25T02:42:36.929Z,-4.30
2019-01-25T02:45:06.881Z,-4.30
2019-01-25T02:47:35.755Z,-4.30
2019-01-25T02:50:05.872Z,-4.30
2019-01-25T02:52:34.657Z,-4.30
2019-01-25T02:55:03.569Z,-4.30
2019-01-25T02:57:32.419Z,-4.30
2019-01-25T03:00:01.182Z,-4.30
2019-01-25T03:02:30.328Z,-4.30
2019-01-25T03:04:59.412Z,-4.30
2019-01-25T03:07:28.266Z,-4.20
2019-01-25T03:09:57.034Z,-4.20
2019-01-25T03:12:26.153Z,-4.20
2019-01-25T03:14:54.926Z,-4.20
2019-01-25T03:17:23.778Z,-4.20
2019-01-25T03:19:52.553Z,-4.20
2019-01-25T03:22:21.329Z,-4.20
2019-01-25T03:24:50.180Z,-4.10
2019-01-25T03:27:18.962Z,-4.20
2019-01-25T03:29:47.718Z,-4.20
2019-01-25T03:32:16.585Z,-4.20
2019-01-25T03:34:45.335Z,-4.30
2019-01-25T03:37:14.112Z,-4.30
2019-01-25T03:39:43.122Z,-4.30
2019-01-25T03:42:12.227Z,-4.30
2019-01-25T03:44:41.131Z,-4.30
2019-01-25T03:47:10.090Z,-4.30
2019-01-25T03:49:38.918Z,-4.30
2019-01-25T03:52:07.950Z,-4.30
2019-01-25T03:54:36.721Z,-4.30
2019-01-25T03:57:05.574Z,-4.20
2019-01-25T03:59:34.344Z,-4.20
2019-01-25T04:02:03.723Z,-4.20
2019-01-25T04:04:32.557Z,-4.20
2019-01-25T04:07:01.334Z,-4.20
2019-01-25T04:09:30.349Z,-4.10
2019-01-25T04:11:59.142Z,-4.10
2019-01-25T04:14:28.375Z,-4.10
2019-01-25T04:16:57.153Z,-4.00
2019-01-25T04:19:25.939Z,-4.00
2019-01-25T04:21:54.728Z,-4.00
2019-01-25T04:24:23.490Z,-4.00
2019-01-25T04:26:52.509Z,-4.00
2019-01-25T04:29:21.374Z,-4.00
2019-01-25T04:31:50.147Z,-4.00
2019-01-25T04:34:19.004Z,-4.00
2019-01-25T04:36:47.870Z,-4.00
2019-01-25T04:39:16.999Z,-4.00
2019-01-25T04:41:46.074Z,-4.00
2019-01-25T04:44:14.970Z,-4.00
2019-01-25T04:46:43.868Z,-4.00
2019-01-25T04:49:12.899Z,-4.00
2019-01-25T04:51:42.367Z,-4.00
2019-01-25T04:54:11.585Z,-4.00
2019-01-25T04:56:40.514Z,-4.00
2019-01-25T04:59:09.357Z,-3.90
2019-01-25T05:01:38.253Z,-3.90
2019-01-25T05:04:07.437Z,-3.90
2019-01-25T05:06:36.203Z,-3.90
2019-01-25T05:09:08.095Z,-3.90
2019-01-25T05:11:36.898Z,-3.90
2019-01-25T05:14:05.867Z,-3.90
2019-01-25T05:16:34.780Z,-3.90
2019-01-25T05:19:03.685Z,-3.90
2019-01-25T05:21:32.522Z,-3.90
2019-01-25T05:24:08.714Z,-3.80
2019-01-25T05:26:37.555Z,-3.80
2019-01-25T05:29:06.337Z,-3.80
2019-01-25T05:31:35.103Z,-3.80
2019-01-25T05:34:03.950Z,-3.80
2019-01-25T05:36:32.765Z,-3.80
2019-01-25T05:39:01.613Z,-3.80
2019-01-25T05:41:31.026Z,-3.80
2019-01-25T05:44:00.050Z,-3.80
2019-01-25T05:46:28.815Z,-3.80
2019-01-25T05:48:57.590Z,-3.80
2019-01-25T05:51:33.436Z,-3.80
2019-01-25T05:53:56.912Z,-3.80
2019-01-25T05:56:25.764Z,-3.70
2019-01-25T05:58:54.555Z,-3.70
2019-01-25T06:01:23.574Z,-3.70
2019-01-25T06:03:52.432Z,-3.70
2019-01-25T06:06:21.282Z,-3.80
2019-01-25T06:08:50.122Z,-3.80
2019-01-25T06:11:19.009Z,-3.80
2019-01-25T06:13:48.034Z,-3.80
2019-01-25T06:16:16.996Z,-3.70
2019-01-25T06:18:45.949Z,-3.80
2019-01-25T06:21:14.873Z,-3.80
2019-01-25T06:23:43.681Z,-3.80
2019-01-25T06:26:13.285Z,-3.80
2019-01-25T06:28:42.343Z,-3.80
2019-01-25T06:31:13.262Z,-3.80
2019-01-25T06:33:42.310Z,-3.80
2019-01-25T06:36:11.172Z,-3.90
2019-01-25T06:38:40.040Z,-3.90
2019-01-25T06:41:09.283Z,-3.80
2019-01-25T06:43:38.081Z,-3.80
2019-01-25T06:46:06.966Z,-3.90
2019-01-25T06:48:35.827Z,-3.80
2019-01-25T06:51:05.510Z,-3.80
2019-01-25T06:53:34.340Z,-3.90
2019-01-25T06:56:03.292Z,-3.90
2019-01-25T06:58:41.086Z,-3.90
2019-01-25T07:01:31.828Z,-3.90
2019-01-25T07:04:07.202Z,-3.80
2019-01-25T07:06:35.987Z,-3.80
2019-01-25T07:09:08.933Z,-3.80
2019-01-25T07:11:42.124Z,-3.80
2019-01-25T07:14:08.392Z,-3.80
2019-01-25T07:16:37.248Z,-3.80
2019-01-25T07:19:06.149Z,-3.80
2019-01-25T07:21:34.962Z,-3.80
2019-01-25T07:24:05.069Z,-3.80
2019-01-25T07:26:33.978Z,-3.80
2019-01-25T07:29:02.929Z,-3.70
2019-01-25T07:31:31.832Z,-3.70
2019-01-25T07:34:00.645Z,-3.70
2019-01-25T07:36:29.518Z,-3.60
2019-01-25T07:38:58.650Z,-3.60
2019-01-25T07:41:27.520Z,-3.60
2019-01-25T07:43:56.339Z,-3.60
2019-01-25T07:46:25.119Z,-3.50
2019-01-25T07:48:53.946Z,-3.50
2019-01-25T07:51:22.785Z,-3.50
2019-01-25T07:53:51.578Z,-3.40
2019-01-25T07:56:20.667Z,-3.40
2019-01-25T07:58:49.704Z,-3.40
2019-01-25T08:01:18.559Z,-3.30
2019-01-25T08:03:47.429Z,-3.30
2019-01-25T08:06:16.558Z,-3.30
2019-01-25T08:08:45.423Z,-3.30
2019-01-25T08:11:14.287Z,-3.30
2019-01-25T08:13:43.542Z,-3.30
2019-01-25T08:16:12.478Z,-3.20
2019-01-25T08:18:41.273Z,-3.20
2019-01-25T08:21:10.162Z,-3.20
2019-01-25T08:23:39.002Z,-3.10
2019-01-25T08:26:07.981Z,-3.10
2019-01-25T08:28:36.768Z,-3.00
2019-01-25T08:31:05.706Z,-2.90
2019-01-25T08:33:34.575Z,-2.90
2019-01-25T08:36:03.435Z,-2.90
2019-01-25T08:38:32.233Z,-2.80
2019-01-25T08:41:01.430Z,-2.70
2019-01-25T08:43:30.214Z,-2.70
2019-01-25T08:45:59.262Z,-2.70
2019-01-25T08:48:29.271Z,-2.60
2019-01-25T08:50:58.522Z,-2.60
2019-01-25T08:53:27.598Z,-2.60
2019-01-25T08:55:56.467Z,-2.50
2019-01-25T08:58:25.648Z,-2.50
2019-01-25T09:00:54.507Z,-2.40
2019-01-25T09:03:23.451Z,-2.50
2019-01-25T09:05:52.347Z,-2.50
2019-01-25T09:08:21.202Z,-2.40
2019-01-25T09:10:50.063Z,-2.40
2019-01-25T09:13:18.829Z,-2.30
2019-01-25T09:15:48.022Z,-2.20
2019-01-25T09:18:16.806Z,-2.10
2019-01-25T09:20:45.845Z,-2.00
2019-01-25T09:23:14.654Z,-1.90
2019-01-25T09:25:43.443Z,-1.80
2019-01-25T09:28:12.286Z,-1.80
2019-01-25T09:30:41.058Z,-1.80
2019-01-25T09:33:09.979Z,-1.70
2019-01-25T09:35:39.085Z,-1.70
2019-01-25T09:38:08.805Z,-1.60
2019-01-25T09:40:37.645Z,-1.60
2019-01-25T09:43:06.997Z,-1.50
2019-01-25T09:45:36.116Z,-1.50
2019-01-25T09:48:05.398Z,-1.40
2019-01-25T09:50:34.270Z,-1.40
2019-01-25T09:53:03.220Z,-1.40
2019-01-25T09:55:32.125Z,-1.30
2019-01-25T09:58:03.027Z,-1.30
2019-01-25T10:00:35.328Z,-1.30
2019-01-25T10:03:04.327Z,-1.40
2019-01-25T10:05:33.290Z,-1.40
2019-01-25T10:08:02.141Z,-1.30
2019-01-25T10:10:30.998Z,-1.30
2019-01-25T10:12:59.846Z,-1.30
2019-01-25T10:15:28.898Z,-1.30
2019-01-25T10:17:57.888Z,-1.20
2019-01-25T10:20:26.875Z,-1.20
2019-01-25T10:22:55.722Z,-1.10
2019-01-25T10:25:24.991Z,-1.00
2019-01-25T10:27:54.226Z,-0.90
2019-01-25T10:30:24.083Z,-0.90
2019-01-25T10:32:52.926Z,-0.90
2019-01-25T10:35:22.229Z,-0.80
2019-01-25T10:37:51.584Z,-0.70
2019-01-25T10:40:20.810Z,-0.60
2019-01-25T10:42:53.138Z,-0.60
2019-01-25T10:45:29.487Z,-0.60
2019-01-25T10:47:58.374Z,-0.60
2019-01-25T10:50:28.365Z,-0.60
2019-01-25T10:52:57.349Z,-0.50
2019-01-25T10:55:26.205Z,-0.50
2019-01-25T10:57:55.162Z,-0.40
2019-01-25T11:00:24.094Z,-0.40
2019-01-25T11:02:58.086Z,-0.40
2019-01-25T11:05:24.266Z,-0.30
2019-01-25T11:07:53.319Z,-0.20
2019-01-25T11:10:22.412Z,-0.20
2019-01-25T11:12:51.333Z,-0.20
2019-01-25T11:15:21.941Z,-0.10
2019-01-25T11:17:51.899Z,0.00
2019-01-25T11:20:21.865Z,0.00
2019-01-25T11:22:50.851Z,0.00
2019-01-25T11:25:25.734Z,-0.10
2019-01-25T11:27:54.602Z,0.00
2019-01-25T11:30:23.512Z,0.00
2019-01-25T11:32:52.720Z,0.00
2019-01-25T11:35:21.558Z,0.00
2019-01-25T11:37:50.442Z,0.00
2019-01-25T11:40:27.290Z,0.10
2019-01-25T11:42:56.083Z,0.10
2019-01-25T11:45:24.863Z,0.10
2019-01-25T11:47:54.029Z,0.10
2019-01-25T11:50:23.074Z,0.10
2019-01-25T11:52:51.871Z,0.20
2019-01-25T11:55:20.782Z,0.20
2019-01-25T11:57:49.834Z,0.20
2019-01-25T12:00:23.560Z,0.20
2019-01-25T12:02:52.495Z,0.10
2019-01-25T12:05:22.366Z,0.10
2019-01-25T12:07:51.436Z,0.10
2019-01-25T12:10:25.693Z,0.10
2019-01-25T12:12:54.549Z,0.10
2019-01-25T12:15:23.669Z,0.10
2019-01-25T12:17:52.520Z,0.20
2019-01-25T12:20:26.444Z,0.20
2019-01-25T12:22:55.433Z,0.20
2019-01-25T12:25:24.268Z,0.30
2019-01-25T12:27:53.212Z,0.30
2019-01-25T12:30:38.448Z,0.40
2019-01-25T12:33:08.388Z,0.30
2019-01-25T12:35:44.369Z,0.30
2019-01-25T12:38:13.221Z,0.30
2019-01-25T12:40:42.799Z,0.20
2019-01-25T12:43:11.960Z,0.20
2019-01-25T12:45:40.818Z,0.20
2019-01-25T12:48:09.822Z,0.20
2019-01-25T12:50:49.044Z,0.20
2019-01-25T12:53:18.436Z,0.20
2019-01-25T12:55:47.368Z,0.20
2019-01-25T12:58:16.302Z,0.10
2019-01-25T13:00:45.137Z,0.10
2019-01-25T13:03:13.985Z,0.10
2019-01-25T13:05:43.341Z,0.10
2019-01-25T13:08:12.560Z,0.20
2019-01-25T13:10:41.402Z,0.30
2019-01-25T13:13:10.261Z,0.40
2019-01-25T13:15:39.050Z,0.50
2019-01-25T13:18:08.287Z,0.50
2019-01-25T13:20:39.473Z,0.50
2019-01-25T13:23:07.730Z,0.60
2019-01-25T13:25:36.586Z,0.60
2019-01-25T13:28:05.539Z,0.60
2019-01-25T13:30:34.451Z,0.50
2019-01-25T13:33:03.546Z,0.50
2019-01-25T13:35:32.500Z,0.50
2019-01-25T13:38:01.359Z,0.60
2019-01-25T13:40:30.203Z,0.60
2019-01-25T13:42:59.041Z,0.60
2019-01-25T13:45:28.135Z,0.50
2019-01-25T13:47:56.982Z,0.50
2019-01-25T13:50:27.110Z,0.50
2019-01-25T13:52:56.028Z,0.50
2019-01-25T13:55:25.222Z,0.60
2019-01-25T13:57:54.387Z,0.60
2019-01-25T14:00:28.138Z,0.70
2019-01-25T14:02:56.935Z,0.80
2019-01-25T14:05:25.858Z,0.80
2019-01-25T14:07:54.734Z,0.90
2019-01-25T14:10:28.213Z,0.90
2019-01-25T14:12:57.154Z,0.90
2019-01-25T14:15:26.154Z,0.90
2019-01-25T14:17:54.937Z,1.00
2019-01-25T14:20:25.701Z,1.10
2019-01-25T14:22:54.747Z,1.20
2019-01-25T14:25:23.789Z,1.20
2019-01-25T14:27:52.954Z,1.10
2019-01-25T14:30:27.522Z,1.10
2019-01-25T14:32:56.483Z,1.00
2019-01-25T14:35:25.330Z,0.80
2019-01-25T14:37:54.174Z,0.70
2019-01-25T14:40:23.019Z,0.70
2019-01-25T14:42:51.914Z,0.70
2019-01-25T14:45:20.792Z,0.50
2019-01-25T14:47:49.975Z,0.50
2019-01-25T14:50:20.147Z,0.50
2019-01-25T14:52:49.074Z,0.40
2019-01-25T14:55:18.004Z,0.40
2019-01-25T14:57:46.906Z,0.40
2019-01-25T15:00:16.334Z,0.30
2019-01-25T15:02:45.420Z,0.30
2019-01-25T15:05:16.246Z,0.30
2019-01-25T15:07:45.338Z,0.30
2019-01-25T15:10:19.154Z,0.30
2019-01-25T15:12:48.601Z,0.20
2019-01-25T15:15:17.526Z,0.10
2019-01-25T15:17:46.434Z,0.20
2019-01-25T15:20:20.374Z,0.20
2019-01-25T15:22:49.210Z,0.20
2019-01-25T15:25:18.134Z,0.30
2019-01-25T15:27:47.104Z,0.30
2019-01-25T15:30:24.730Z,0.30
2019-01-25T15:32:54.056Z,0.30
2019-01-25T15:35:23.040Z,0.20
2019-01-25T15:37:51.994Z,0.10
2019-01-25T15:40:21.281Z,0.00
2019-01-25T15:42:50.308Z,-0.10
2019-01-25T15:45:19.729Z,-0.10
2019-01-25T15:47:48.658Z,-0.20
2019-01-25T15:50:20.190Z,-0.20
2019-01-25T15:52:49.315Z,-0.20
2019-01-25T15:55:20.075Z,-0.20
2019-01-25T15:57:49.395Z,-0.10
2019-01-25T16:00:20.283Z,-0.10
2019-01-25T16:02:49.527Z,-0.10
2019-01-25T16:05:19.853Z,-0.10
2019-01-25T16:07:49.940Z,-0.10
2019-01-25T16:10:19.944Z,-0.10
2019-01-25T16:12:48.999Z,-0.10
2019-01-25T19:19:51.831Z,-0.30
2019-01-25T19:22:20.625Z,-0.30
2019-01-25T19:24:49.410Z,-0.30
2019-01-25T19:27:19.862Z,-0.30
2019-01-25T19:29:49.400Z,-0.30
2019-01-25T19:32:18.830Z,-0.30
2019-01-25T19:34:48.421Z,-0.30
2019-01-25T19:37:17.902Z,-0.20
2019-01-25T19:39:46.819Z,-0.20
2019-01-25T19:42:15.792Z,-0.20
2019-01-25T19:44:44.669Z,-0.20
2019-01-25T19:47:13.463Z,-0.20
2019-01-25T19:49:42.310Z,-0.20
2019-01-25T19:52:11.164Z,-0.20
2019-01-25T19:54:40.230Z,-0.20
2019-01-25T19:57:09.024Z,-0.20
2019-01-25T19:59:37.879Z,-0.20
2019-01-25T20:02:06.831Z,-0.20
2019-01-25T20:04:36.711Z,-0.10
2019-01-25T20:07:05.578Z,-0.10
2019-01-25T20:09:34.479Z,-0.10
2019-01-25T20:12:03.522Z,-0.10
2019-01-25T20:14:32.302Z,-0.10
2019-01-25T20:17:01.412Z,-0.10
2019-01-25T20:19:30.183Z,-0.10
2019-01-25T20:21:58.981Z,-0.10
2019-01-25T20:24:27.935Z,-0.10
2019-01-25T20:26:56.967Z,-0.10
2019-01-25T20:29:26.279Z,-0.10
2019-01-25T20:31:55.343Z,-0.10
2019-01-25T20:34:24.486Z,-0.10
2019-01-25T20:36:53.374Z,0.00
2019-01-25T20:39:22.399Z,0.00
2019-01-25T20:41:51.273Z,0.00
2019-01-25T20:44:20.043Z,0.00
2019-01-25T20:46:49.015Z,0.00
2019-01-25T20:49:18.081Z,0.00
2019-01-25T20:51:47.015Z,0.00
2019-01-25T20:54:15.839Z,0.00
2019-01-25T20:56:44.860Z,0.00
2019-01-25T20:59:13.883Z,0.00
2019-01-25T21:01:42.815Z,0.00
2019-01-25T21:04:11.650Z,0.00
2019-01-25T21:06:40.505Z,0.00
2019-01-25T21:09:10.978Z,0.00
2019-01-25T21:11:39.864Z,0.00
2019-01-25T21:14:08.840Z,0.00
2019-01-25T21:16:37.627Z,0.00
2019-01-25T21:19:06.552Z,0.00
2019-01-25T21:21:35.339Z,0.00
2019-01-25T21:24:04.423Z,0.00
2019-01-25T21:26:33.450Z,0.00
2019-01-25T21:29:02.417Z,0.00
2019-01-25T21:31:31.691Z,0.00
2019-01-25T21:34:00.603Z,0.00
2019-01-25T21:36:29.478Z,0.00
2019-01-25T21:38:58.395Z,0.00
2019-01-25T21:41:27.238Z,0.00
2019-01-25T21:43:56.029Z,0.00
2019-01-25T21:46:25.209Z,0.00
2019-01-25T21:48:54.075Z,0.00
2019-01-25T21:51:22.839Z,0.10
2019-01-25T21:53:51.623Z,0.10
2019-01-25T21:56:20.395Z,0.10
2019-01-25T21:58:49.435Z,0.10
2019-01-25T22:01:18.360Z,0.10
2019-01-25T22:03:47.269Z,0.10
2019-01-25T22:06:16.397Z,0.10
2019-01-25T22:08:45.371Z,0.10
2019-01-25T22:11:14.147Z,0.10
2019-01-25T22:13:43.180Z,0.10
2019-01-25T22:16:12.010Z,0.10
2019-01-25T22:18:40.802Z,0.10
2019-01-25T22:21:09.668Z,0.10
2019-01-25T22:23:38.598Z,0.10
2019-01-25T22:26:07.455Z,0.10
2019-01-25T22:28:36.250Z,0.10
2019-01-25T22:31:05.111Z,0.20
2019-01-25T22:33:33.981Z,0.20
2019-01-25T22:36:02.792Z,0.20
2019-01-25T22:38:31.615Z,0.20
2019-01-25T22:41:00.446Z,0.20
2019-01-25T22:43:29.305Z,0.20
2019-01-25T22:45:58.997Z,0.20
2019-01-25T22:48:27.975Z,0.20
2019-01-25T22:50:56.854Z,0.20
2019-01-25T22:53:25.711Z,0.20
2019-01-25T22:55:54.479Z,0.20
2019-01-25T22:58:23.257Z,0.20
2019-01-25T23:01:16.122Z,0.20
2019-01-25T23:04:26.228Z,0.20
2019-01-25T23:07:08.343Z,0.20
2019-01-25T23:09:43.414Z,0.20
2019-01-25T23:12:12.263Z,0.30
2019-01-25T23:14:41.182Z,0.20
2019-01-25T23:17:10.042Z,0.30
2019-01-25T23:19:38.824Z,0.20
2019-01-25T23:22:07.670Z,0.30
2019-01-25T23:24:36.547Z,0.30
2019-01-25T23:27:05.471Z,0.30
2019-01-25T23:29:34.833Z,0.30
2019-01-25T23:32:04.165Z,0.30
2019-01-25T23:34:33.007Z,0.30
2019-01-25T23:37:01.923Z,0.30
2019-01-25T23:39:30.767Z,0.40
2019-01-25T23:41:59.607Z,0.40
2019-01-25T23:44:28.387Z,0.40
2019-01-25T23:46:57.156Z,0.40
2019-01-25T23:49:25.937Z,0.40
2019-01-25T23:51:54.960Z,0.40
2019-01-25T23:54:24.110Z,0.40
2019-01-25T23:56:53.163Z,0.40
2019-01-25T23:59:22.011Z,0.50
